This is the latest recevied weather packets stored in our database for station/object WA1RYQ. If no packets are shown the sender has not sent any weather packets the latest 10 day(s).
| Time | Temp. | Humidity | Pressure | Rain* | Wind** | Luminosity | Snow |
|---|---|---|---|---|---|---|---|
| 1777797929 | 18.33° C | 89% | 1015.4 hPa | 0 mm | - | 0 W/m² | - |
| 1777796121 | 18.33° C | 88% | 1015.1 hPa | 0.51 mm | - | 0 W/m² | - |
| 1777794617 | 18.89° C | 89% | 1014.9 hPa | 0.76 mm | - | 0 W/m² | - |
| 1777792843 | 19.44° C | 88% | 1014.4 hPa | 0.51 mm | - | 0 W/m² | - |
| 1777791934 | 19.44° C | 88% | 1014.6 hPa | 0.51 mm | - | 0 W/m² | - |
| 1777791332 | 19.44° C | 87% | 1014.8 hPa | 0.25 mm | - | 0 W/m² | - |
| 1777789863 | 20° C | 87% | 1014.9 hPa | 0.25 mm | - | 0 W/m² | - |
| 1777788014 | 20.56° C | 87% | 1014.9 hPa | 0 mm | - | 0 W/m² | - |
| 1777785642 | 20.56° C | 87% | 1015.2 hPa | 0 mm | - | 0 W/m² | - |
| 1777785324 | 20.56° C | 87% | 1015.1 hPa | 0 mm | - | 0 W/m² | - |
| 1777782325 | 21.11° C | 87% | 1014.5 hPa | 0 mm | - | 0 W/m² | - |
| 1777781704 | 21.11° C | 87% | 1014.5 hPa | 0 mm | - | 0 W/m² | - |
| 1777780864 | 21.11° C | 88% | 1014.3 hPa | 0 mm | - | 0 W/m² | - |
| 1777780231 | 21.11° C | 88% | 1014.2 hPa | 0 mm | - | 0 W/m² | - |
| 1777779613 | 20.56° C | 89% | 1014.1 hPa | 0.25 mm | - | 0 W/m² | - |
| 1777779344 | 21.11° C | 89% | 1014 hPa | 0.25 mm | - | 0 W/m² | - |
| 1777778723 | 21.11° C | 89% | 1014.1 hPa | 0.25 mm | - | 0 W/m² | - |
| 1777778167 | 21.11° C | 89% | 1013.7 hPa | 0.25 mm | - | 0 W/m² | - |
| 1777777537 | 21.67° C | 89% | 1013.6 hPa | 0.51 mm | - | 0 W/m² | - |
| 1777776349 | 21.67° C | 90% | 1013.4 hPa | 0.51 mm | - | 0 W/m² | - |
| 1777775721 | 22.22° C | 90% | 1013.2 hPa | 0.76 mm | - | 0 W/m² | - |
| 1777775159 | 22.22° C | 89% | 1013 hPa | 0.76 mm | - | 0 W/m² | - |
| 1777773620 | 21.67° C | 88% | 1013 hPa | 0.51 mm | - | 0 W/m² | - |
| 1777770938 | 23.33° C | 86% | 1012.2 hPa | 0 mm | - | 0 W/m² | - |
| 1777770657 | 23.33° C | 86% | 1012 hPa | 0 mm | - | 0 W/m² | - |
* Rain latest hour (hover to see other rain measurements)
** Current wind speed in m/s (hover to see current wind gust speed)